createdAt,value
2022-09-29T00:06:00.948Z,98083.97
2022-09-29T00:15:34.780Z,98079.94
2022-09-29T00:25:09.544Z,98085.59
2022-09-29T00:34:41.616Z,98091.20
2022-09-29T00:44:17.383Z,98092.51
2022-09-29T00:53:51.595Z,98082.34
2022-09-29T01:03:25.389Z,98072.90
2022-09-29T01:12:58.748Z,98074.09
2022-09-29T01:22:34.711Z,98065.98
2022-09-29T01:32:06.051Z,98068.82
2022-09-29T01:41:40.058Z,98069.52
2022-09-29T01:51:13.997Z,98074.31
2022-09-29T02:00:53.372Z,98078.14
2022-09-29T02:10:23.394Z,98078.41
2022-09-29T02:19:55.414Z,98080.88
2022-09-29T02:29:30.728Z,98089.10
2022-09-29T02:39:02.415Z,98086.59
2022-09-29T02:48:36.189Z,98093.91
2022-09-29T02:58:11.661Z,98088.98
2022-09-29T03:07:43.705Z,98097.49
2022-09-29T03:17:19.297Z,98089.61
2022-09-29T03:26:53.036Z,98093.83
2022-09-29T03:36:26.021Z,98097.19
2022-09-29T03:45:59.582Z,98092.70
2022-09-29T03:55:31.599Z,98096.56
2022-09-29T04:05:05.120Z,98107.36
2022-09-29T04:14:40.391Z,98111.77
2022-09-29T04:24:13.731Z,98108.98
2022-09-29T04:33:45.639Z,98113.95
2022-09-29T04:43:20.045Z,98117.55
2022-09-29T04:52:55.483Z,98130.95
2022-09-29T05:02:27.293Z,98138.77
2022-09-29T05:12:02.246Z,98126.06
2022-09-29T05:21:33.860Z,98126.64
2022-09-29T05:31:09.404Z,98146.08
2022-09-29T05:40:41.242Z,98154.98
2022-09-29T05:50:15.116Z,98165.56
2022-09-29T05:59:49.462Z,98170.47
2022-09-29T06:09:23.221Z,98177.11
2022-09-29T06:18:57.254Z,98183.25
2022-09-29T06:28:31.559Z,98180.16
2022-09-29T06:38:05.718Z,98192.39
2022-09-29T06:47:40.630Z,98200.21
2022-09-29T06:57:14.820Z,98205.93
2022-09-29T07:06:48.867Z,98202.83
2022-09-29T07:07:52.641Z,98204.00
2022-09-29T07:17:25.492Z,98204.95
2022-09-29T07:26:59.541Z,98204.30
2022-09-29T07:36:33.896Z,98209.48
2022-09-29T07:37:36.387Z,98210.66
2022-09-29T07:47:10.171Z,98216.10
2022-09-29T07:48:14.200Z,98213.70
2022-09-29T07:49:18.111Z,98216.77
2022-09-29T07:50:20.448Z,98218.84
2022-09-29T07:51:22.858Z,98215.48
2022-09-29T07:52:25.229Z,98213.09
2022-09-29T07:53:29.270Z,98210.17
2022-09-29T08:03:02.432Z,98229.90
2022-09-29T08:04:04.735Z,98230.98
2022-09-29T08:05:07.831Z,98232.56
2022-09-29T08:06:09.623Z,98227.27
2022-09-29T08:07:12.074Z,98232.06
2022-09-29T08:08:14.593Z,98236.58
2022-09-29T08:09:18.700Z,98236.19
2022-09-29T08:10:20.963Z,98234.84
2022-09-29T08:11:30.711Z,98237.15
2022-09-29T08:12:38.210Z,98238.92
2022-09-29T08:13:29.659Z,98239.46
2022-09-29T08:14:32.067Z,98238.98
2022-09-29T08:15:36.118Z,98242.90
2022-09-29T08:16:38.586Z,98242.46
2022-09-29T08:17:40.836Z,98243.67
2022-09-29T08:18:43.241Z,98242.37
2022-09-29T08:19:47.231Z,98243.09
2022-09-29T08:20:49.492Z,98249.25
2022-09-29T08:21:51.945Z,98248.34
2022-09-29T08:22:54.468Z,98251.62
2022-09-29T08:23:56.857Z,98249.29
2022-09-29T08:24:59.303Z,98246.91
2022-09-29T08:26:02.150Z,98247.98
2022-09-29T08:27:13.982Z,98247.77
2022-09-29T08:28:06.604Z,98250.05
2022-09-29T08:29:09.332Z,98247.22
2022-09-29T08:30:11.457Z,98244.73
2022-09-29T08:31:13.864Z,98248.48
2022-09-29T08:32:17.875Z,98248.27
2022-09-29T08:33:21.772Z,98247.80
2022-09-29T08:34:24.184Z,98254.27
2022-09-29T08:35:26.534Z,98254.66
2022-09-29T08:36:28.952Z,98253.40
2022-09-29T08:37:35.034Z,98254.06
2022-09-29T08:38:36.957Z,98251.44
2022-09-29T08:39:39.233Z,98253.29
2022-09-29T08:49:16.409Z,98252.62
2022-09-29T08:50:17.029Z,98252.12
2022-09-29T08:51:21.644Z,98248.96
2022-09-29T08:52:23.270Z,98254.20
2022-09-29T08:53:29.194Z,98250.83
2022-09-29T08:54:38.300Z,98253.14
2022-09-29T08:55:33.574Z,98253.62
2022-09-29T08:56:36.004Z,98252.64
2022-09-29T08:57:38.428Z,98258.36
2022-09-29T08:58:42.508Z,98259.16
2022-09-29T08:59:44.785Z,98260.16
2022-09-29T09:00:47.291Z,98266.04
2022-09-29T09:01:52.655Z,98264.05
2022-09-29T09:02:56.822Z,98266.37
2022-09-29T09:03:57.277Z,98263.47
2022-09-29T09:04:59.670Z,98263.79
2022-09-29T09:06:02.089Z,98260.27
2022-09-29T09:07:04.536Z,98266.09
2022-09-29T09:08:07.112Z,98267.33
2022-09-29T09:09:11.093Z,98268.16
2022-09-29T09:10:14.948Z,98264.81
2022-09-29T09:11:19.079Z,98270.74
2022-09-29T09:12:21.354Z,98271.14
2022-09-29T09:13:23.763Z,98271.28
2022-09-29T09:14:27.743Z,98273.00
2022-09-29T09:15:31.728Z,98275.59
2022-09-29T09:16:35.094Z,98275.59
2022-09-29T09:17:38.984Z,98272.66
2022-09-29T09:18:41.283Z,98279.41
2022-09-29T09:19:43.779Z,98283.59
2022-09-29T09:20:46.181Z,98283.01
2022-09-29T09:21:50.236Z,98277.02
2022-09-29T09:22:52.584Z,98282.56
2022-09-29T09:23:58.302Z,98280.92
2022-09-29T09:24:58.942Z,98282.50
2022-09-29T09:26:01.393Z,98278.95
2022-09-29T09:27:05.424Z,98279.63
2022-09-29T09:28:07.825Z,98284.37
2022-09-29T09:29:10.340Z,98284.77
2022-09-29T09:30:14.367Z,98283.23
2022-09-29T09:31:16.726Z,98280.45
2022-09-29T09:32:19.108Z,98279.50
2022-09-29T09:33:30.651Z,98277.86
2022-09-29T09:34:35.522Z,98287.88
2022-09-29T09:35:27.950Z,98277.93
2022-09-29T09:36:34.325Z,98280.31
2022-09-29T09:37:35.969Z,98281.87
2022-09-29T09:38:38.317Z,98281.97
2022-09-29T09:39:42.291Z,98278.20
2022-09-29T09:40:44.581Z,98280.94
2022-09-29T09:41:48.620Z,98282.28
2022-09-29T09:42:50.961Z,98277.69
2022-09-29T09:43:53.404Z,98275.66
2022-09-29T09:44:59.654Z,98279.34
2022-09-29T09:46:01.891Z,98279.34
2022-09-29T09:47:05.864Z,98276.17
2022-09-29T09:48:08.177Z,98276.80
2022-09-29T09:49:10.681Z,98276.23
2022-09-29T09:50:13.149Z,98276.47
2022-09-29T09:51:15.567Z,98274.11
2022-09-29T09:52:18.032Z,98275.95
2022-09-29T09:53:22.049Z,98280.33
2022-09-29T09:54:26.035Z,98277.95
2022-09-29T09:55:28.366Z,98285.02
2022-09-29T09:56:30.757Z,98283.88
2022-09-29T09:57:34.814Z,98285.52
2022-09-29T09:58:37.274Z,98286.57
2022-09-29T09:59:39.668Z,98282.03
2022-09-29T10:00:43.731Z,98282.89
2022-09-29T10:01:46.169Z,98279.84
2022-09-29T10:02:48.623Z,98282.27
2022-09-29T10:03:51.008Z,98279.48
2022-09-29T10:04:53.455Z,98282.22
2022-09-29T10:05:55.911Z,98282.23
2022-09-29T10:06:59.991Z,98282.67
2022-09-29T10:08:02.346Z,98288.27
2022-09-29T10:09:06.480Z,98284.58
2022-09-29T10:10:08.748Z,98289.45
2022-09-29T10:11:12.802Z,98286.84
2022-09-29T10:12:15.135Z,98281.22
2022-09-29T10:13:17.639Z,98278.19
2022-09-29T10:14:20.052Z,98284.47
2022-09-29T10:15:22.473Z,98280.98
2022-09-29T10:16:26.564Z,98281.82
2022-09-29T10:17:28.835Z,98279.44
2022-09-29T10:18:32.877Z,98282.49
2022-09-29T10:19:37.017Z,98286.95
2022-09-29T10:20:39.324Z,98287.64
2022-09-29T10:21:43.333Z,98289.58
2022-09-29T10:22:47.237Z,98286.09
2022-09-29T10:23:49.721Z,98292.86
2022-09-29T10:24:52.071Z,98291.78
2022-09-29T10:25:54.464Z,98298.20
2022-09-29T10:26:56.953Z,98294.58
2022-09-29T10:27:59.414Z,98297.20
2022-09-29T10:29:03.447Z,98293.52
2022-09-29T10:30:05.804Z,98293.61
2022-09-29T10:31:10.120Z,98294.31
2022-09-29T10:32:13.939Z,98296.66
2022-09-29T10:33:16.352Z,98296.30
2022-09-29T10:34:20.548Z,98292.74
2022-09-29T10:35:22.722Z,98295.91
2022-09-29T10:36:25.167Z,98294.57
2022-09-29T10:37:29.168Z,98299.24
2022-09-29T10:38:33.090Z,98302.27
2022-09-29T10:39:35.412Z,98300.37
2022-09-29T10:40:39.436Z,98294.34
2022-09-29T10:41:43.369Z,98302.20
2022-09-29T10:42:45.777Z,98303.20
2022-09-29T10:43:49.629Z,98301.28
2022-09-29T10:44:53.636Z,98302.25
2022-09-29T10:45:55.951Z,98305.63
2022-09-29T10:46:58.341Z,98302.09
2022-09-29T10:48:02.438Z,98303.33
2022-09-29T10:49:06.367Z,98299.49
2022-09-29T10:50:08.878Z,98305.27
2022-09-29T10:51:11.218Z,98301.10
2022-09-29T10:52:13.687Z,98298.17
2022-09-29T10:53:17.734Z,98297.93
2022-09-29T10:54:20.166Z,98299.58
2022-09-29T10:55:22.505Z,98296.05
2022-09-29T10:56:24.991Z,98298.16
2022-09-29T10:57:27.420Z,98297.41
2022-09-29T10:58:44.187Z,98295.58
2022-09-29T10:59:33.989Z,98298.05
2022-09-29T11:00:36.256Z,98300.70
2022-09-29T11:01:38.768Z,98296.91
2022-09-29T11:02:42.787Z,98302.06
2022-09-29T11:03:45.112Z,98302.13
2022-09-29T11:04:47.547Z,98300.31
2022-09-29T11:05:51.613Z,98301.44
2022-09-29T11:06:55.488Z,98309.34
2022-09-29T11:07:58.836Z,98303.03
2022-09-29T11:09:01.292Z,98303.43
2022-09-29T11:10:03.616Z,98300.31
2022-09-29T11:11:06.055Z,98301.31
2022-09-29T11:12:10.128Z,98303.61
2022-09-29T11:13:14.036Z,98300.13
2022-09-29T11:14:16.374Z,98299.59
2022-09-29T11:15:18.857Z,98302.13
2022-09-29T11:16:22.999Z,98301.22
2022-09-29T11:17:25.262Z,98303.03
2022-09-29T11:18:29.321Z,98300.13
2022-09-29T11:19:31.636Z,98300.41
2022-09-29T11:20:34.080Z,98303.19
2022-09-29T11:21:36.507Z,98299.90
2022-09-29T11:22:38.980Z,98301.13
2022-09-29T11:23:41.403Z,98302.19
2022-09-29T11:24:43.838Z,98302.02
2022-09-29T11:25:46.274Z,98303.96
2022-09-29T11:26:48.750Z,98305.75
2022-09-29T11:27:51.239Z,98305.33
2022-09-29T11:28:53.642Z,98305.11
2022-09-29T11:29:57.768Z,98311.19
2022-09-29T11:31:00.096Z,98308.28
2022-09-29T11:32:02.496Z,98305.41
2022-09-29T11:33:04.966Z,98307.70
2022-09-29T11:34:07.421Z,98311.41
2022-09-29T11:35:09.891Z,98308.94
2022-09-29T11:36:13.889Z,98310.63
2022-09-29T11:37:16.350Z,98309.75
2022-09-29T11:38:20.417Z,98308.17
2022-09-29T11:39:24.275Z,98306.59
2022-09-29T11:40:29.189Z,98309.60
2022-09-29T11:41:33.060Z,98312.25
2022-09-29T11:42:35.504Z,98315.97
2022-09-29T11:43:37.951Z,98312.43
2022-09-29T11:44:42.041Z,98312.42
2022-09-29T11:45:44.429Z,98311.40
2022-09-29T11:46:46.847Z,98310.77
2022-09-29T11:47:49.308Z,98314.47
2022-09-29T11:48:53.350Z,98315.42
2022-09-29T11:49:55.718Z,98313.50
2022-09-29T11:50:58.201Z,98313.55
2022-09-29T11:52:00.650Z,98313.55
2022-09-29T11:53:03.086Z,98315.84
2022-09-29T11:54:07.266Z,98314.83
2022-09-29T11:55:09.446Z,98315.72
2022-09-29T11:56:11.888Z,98315.00
2022-09-29T11:57:19.221Z,98312.03
2022-09-29T11:58:18.294Z,98310.95
2022-09-29T11:59:20.937Z,98315.73
2022-09-29T12:00:24.817Z,98312.95
2022-09-29T12:01:28.727Z,98316.95
2022-09-29T12:02:31.211Z,98311.64
2022-09-29T12:03:33.511Z,98311.75
2022-09-29T12:04:35.953Z,98315.66
2022-09-29T12:05:38.436Z,98309.08
2022-09-29T12:06:40.900Z,98312.07
2022-09-29T12:07:43.352Z,98308.78
2022-09-29T12:08:47.440Z,98307.28
2022-09-29T12:09:51.363Z,98308.44
2022-09-29T12:10:53.728Z,98307.47
2022-09-29T12:12:18.697Z,98308.59
2022-09-29T12:12:58.625Z,98306.63
2022-09-29T12:14:01.312Z,98303.88
2022-09-29T12:15:05.368Z,98303.95
2022-09-29T12:16:09.257Z,98307.19
2022-09-29T12:17:13.268Z,98303.98
2022-09-29T12:18:15.524Z,98303.28
2022-09-29T12:19:18.033Z,98307.30
2022-09-29T12:20:20.490Z,98306.34
2022-09-29T12:22:25.344Z,98301.11
2022-09-29T12:23:27.817Z,98304.96
2022-09-29T12:24:31.927Z,98303.81
2022-09-29T12:25:35.895Z,98301.19
2022-09-29T12:26:38.222Z,98305.22
2022-09-29T12:27:40.728Z,98304.22
2022-09-29T12:28:43.162Z,98302.59
2022-09-29T12:29:45.657Z,98299.97
2022-09-29T12:30:48.180Z,98300.24
2022-09-29T12:31:52.215Z,98301.50
2022-09-29T12:32:56.148Z,98299.55
2022-09-29T12:33:58.610Z,98301.88
2022-09-29T12:35:01.058Z,98296.64
2022-09-29T12:36:03.551Z,98300.59
2022-09-29T12:37:07.606Z,98295.97
2022-09-29T12:38:11.606Z,98300.23
2022-09-29T12:39:13.880Z,98301.27
2022-09-29T12:40:17.892Z,98298.02
2022-09-29T12:41:21.867Z,98296.08
2022-09-29T12:42:25.764Z,98299.30
2022-09-29T12:43:28.077Z,98301.91
2022-09-29T12:44:30.553Z,98304.41
2022-09-29T12:45:35.255Z,98298.72
2022-09-29T12:46:37.076Z,98301.92
2022-09-29T12:47:41.046Z,98302.11
2022-09-29T12:48:43.377Z,98295.63
2022-09-29T12:49:45.871Z,98300.05
2022-09-29T12:50:49.950Z,98300.44
2022-09-29T12:51:52.268Z,98294.16
2022-09-29T12:52:54.864Z,98291.22
2022-09-29T12:53:57.319Z,98295.01
2022-09-29T12:55:01.384Z,98293.56
2022-09-29T12:56:03.798Z,98291.80
2022-09-29T12:57:06.230Z,98293.95
2022-09-29T12:58:08.697Z,98294.19
2022-09-29T12:59:11.188Z,98297.10
2022-09-29T13:00:15.218Z,98294.09
2022-09-29T13:01:19.297Z,98290.80
2022-09-29T13:02:21.554Z,98290.48
2022-09-29T13:03:23.992Z,98290.33
2022-09-29T13:04:26.407Z,98292.34
2022-09-29T13:05:28.835Z,98295.27
2022-09-29T13:06:31.282Z,98288.48
2022-09-29T13:07:35.418Z,98292.09
2022-09-29T13:08:38.702Z,98292.08
2022-09-29T13:09:41.126Z,98297.83
2022-09-29T13:10:43.487Z,98291.09
2022-09-29T13:11:46.005Z,98291.11
2022-09-29T13:12:48.437Z,98286.72
2022-09-29T13:13:50.917Z,98291.05
2022-09-29T13:14:54.993Z,98292.55
2022-09-29T13:15:57.348Z,98292.88
2022-09-29T13:16:59.760Z,98293.28
2022-09-29T13:18:02.310Z,98299.13
2022-09-29T13:19:18.564Z,98296.27
2022-09-29T13:20:07.677Z,98298.85
2022-09-29T13:21:09.669Z,98297.92
2022-09-29T13:22:13.714Z,98309.89
2022-09-29T13:23:16.042Z,98308.00
2022-09-29T13:24:20.377Z,98311.48
2022-09-29T13:25:23.756Z,98310.23
2022-09-29T13:26:28.778Z,98309.41
2022-09-29T13:27:31.047Z,98308.63
2022-09-29T13:28:33.492Z,98309.11
2022-09-29T13:29:35.943Z,98309.41
2022-09-29T13:30:40.082Z,98312.81
2022-09-29T13:32:44.777Z,98307.20
2022-09-29T13:33:47.275Z,98310.74
2022-09-29T13:34:51.300Z,98310.43
2022-09-29T13:35:56.316Z,98306.91
2022-09-29T13:37:00.370Z,98309.59
2022-09-29T13:38:02.686Z,98305.01
2022-09-29T13:39:05.149Z,98306.91
2022-09-29T13:40:10.759Z,98303.20
2022-09-29T13:41:11.613Z,98310.63
2022-09-29T13:42:13.959Z,98310.20
2022-09-29T13:43:18.044Z,98309.85
2022-09-29T13:44:20.611Z,98313.93
2022-09-29T13:45:23.278Z,98309.98
2022-09-29T13:46:25.373Z,98311.02
2022-09-29T13:47:27.840Z,98314.23
2022-09-29T13:48:30.295Z,98312.27
2022-09-29T13:49:32.851Z,98310.63
2022-09-29T13:50:35.289Z,98313.66
2022-09-29T13:51:37.866Z,98311.96
2022-09-29T13:52:40.322Z,98314.89
2022-09-29T13:53:42.810Z,98318.02
2022-09-29T13:54:46.881Z,98323.52
2022-09-29T13:55:50.864Z,98322.23
2022-09-29T13:56:53.219Z,98322.67
2022-09-29T13:57:55.703Z,98326.78
2022-09-29T13:58:58.118Z,98325.86
2022-09-29T14:00:00.619Z,98321.15
2022-09-29T14:01:03.184Z,98326.91
2022-09-29T14:02:05.580Z,98328.53
2022-09-29T14:03:08.213Z,98329.63
2022-09-29T14:04:10.658Z,98327.09
2022-09-29T14:05:13.115Z,98328.89
2022-09-29T14:06:39.492Z,98331.74
2022-09-29T14:07:21.104Z,98328.92
2022-09-29T14:08:25.029Z,98335.82
2022-09-29T14:09:27.401Z,98337.48
2022-09-29T14:10:29.782Z,98332.61
2022-09-29T14:11:32.442Z,98340.62
2022-09-29T14:12:34.825Z,98341.84
2022-09-29T14:13:37.254Z,98341.20
2022-09-29T14:14:39.713Z,98339.67
2022-09-29T14:15:42.225Z,98344.95
2022-09-29T14:16:44.612Z,98344.80
2022-09-29T14:17:47.094Z,98345.64
2022-09-29T14:18:49.576Z,98343.80
2022-09-29T14:19:52.975Z,98346.48
2022-09-29T14:20:56.958Z,98349.86
2022-09-29T14:22:01.105Z,98346.69
2022-09-29T14:23:05.994Z,98343.05
2022-09-29T14:24:09.814Z,98346.69
2022-09-29T14:25:13.742Z,98345.94
2022-09-29T14:26:16.048Z,98347.07
2022-09-29T14:27:20.131Z,98341.08
2022-09-29T14:28:24.031Z,98346.91
2022-09-29T14:29:31.977Z,98345.94
2022-09-29T14:30:35.740Z,98348.52
2022-09-29T14:31:38.032Z,98343.66
2022-09-29T14:32:40.492Z,98346.94
2022-09-29T14:33:42.890Z,98348.60
2022-09-29T14:34:47.007Z,98350.95
2022-09-29T14:35:50.918Z,98347.58
2022-09-29T14:36:53.345Z,98352.79
2022-09-29T14:37:55.804Z,98353.55
2022-09-29T14:39:25.895Z,98354.08
2022-09-29T14:40:02.514Z,98359.70
2022-09-29T14:41:10.294Z,98355.25
2022-09-29T14:42:12.377Z,98353.98
2022-09-29T14:43:16.498Z,98355.71
2022-09-29T14:44:21.416Z,98357.97
2022-09-29T14:45:23.713Z,98355.28
2022-09-29T14:46:27.831Z,98357.53
2022-09-29T14:47:30.206Z,98354.31
2022-09-29T14:48:32.711Z,98356.08
2022-09-29T14:49:38.790Z,98355.16
2022-09-29T14:50:39.130Z,98351.75
2022-09-29T14:51:41.581Z,98354.09
2022-09-29T14:52:45.652Z,98355.56
2022-09-29T14:53:47.989Z,98353.08
2022-09-29T14:54:50.411Z,98356.30
2022-09-29T14:55:52.866Z,98356.59
2022-09-29T14:56:55.327Z,98355.48
2022-09-29T14:57:57.789Z,98360.28
2022-09-29T14:59:00.259Z,98358.77
2022-09-29T15:00:02.723Z,98362.98
2022-09-29T15:01:05.161Z,98368.28
2022-09-29T15:02:07.635Z,98367.22
2022-09-29T15:03:26.859Z,98374.20
2022-09-29T15:04:13.523Z,98368.30
2022-09-29T15:05:15.856Z,98366.77
2022-09-29T15:06:21.069Z,98372.17
2022-09-29T15:07:24.915Z,98375.56
2022-09-29T15:08:27.321Z,98376.16
2022-09-29T15:09:29.818Z,98372.53
2022-09-29T15:10:32.207Z,98373.06
2022-09-29T15:11:36.235Z,98375.30
2022-09-29T15:12:38.588Z,98371.10
2022-09-29T15:13:41.042Z,98367.92
2022-09-29T15:14:43.659Z,98371.98
2022-09-29T15:15:46.277Z,98376.11
2022-09-29T15:16:50.260Z,98367.83
2022-09-29T15:17:52.672Z,98368.09
2022-09-29T15:18:55.136Z,98365.59
2022-09-29T15:19:59.209Z,98367.06
2022-09-29T15:21:03.155Z,98368.16
2022-09-29T15:22:05.568Z,98373.16
2022-09-29T15:23:07.988Z,98367.44
2022-09-29T15:24:12.027Z,98373.11
2022-09-29T15:25:16.091Z,98373.97
2022-09-29T15:26:18.496Z,98372.81
2022-09-29T15:27:24.785Z,98371.61
2022-09-29T15:28:28.565Z,98374.80
2022-09-29T15:29:32.518Z,98375.73
2022-09-29T15:30:36.581Z,98375.26
2022-09-29T15:31:38.873Z,98368.58
2022-09-29T15:32:41.307Z,98371.02
2022-09-29T15:33:43.883Z,98374.17
2022-09-29T15:34:50.299Z,98378.19
2022-09-29T15:35:50.269Z,98379.25
2022-09-29T15:36:52.729Z,98381.02
2022-09-29T15:37:55.157Z,98382.46
2022-09-29T15:38:57.637Z,98385.31
2022-09-29T15:40:00.081Z,98386.75
2022-09-29T15:41:02.540Z,98385.44
2022-09-29T15:42:05.002Z,98386.66
2022-09-29T15:43:09.026Z,98384.73
2022-09-29T15:44:11.325Z,98388.59
2022-09-29T15:45:13.838Z,98385.48
2022-09-29T15:46:18.033Z,98385.53
2022-09-29T15:47:20.462Z,98383.66
2022-09-29T15:48:24.568Z,98385.03
2022-09-29T15:49:26.966Z,98387.79
2022-09-29T15:50:29.444Z,98383.75
2022-09-29T15:51:31.956Z,98389.13
2022-09-29T15:52:36.062Z,98386.86
2022-09-29T15:53:40.043Z,98389.42
2022-09-29T15:54:42.389Z,98393.05
2022-09-29T15:55:44.857Z,98391.16
2022-09-29T15:56:48.924Z,98397.06
2022-09-29T15:57:51.280Z,98395.19
2022-09-29T15:58:53.732Z,98393.33
2022-09-29T15:59:56.232Z,98394.94
2022-09-29T16:01:00.392Z,98394.53
2022-09-29T16:02:03.002Z,98399.77
2022-09-29T16:03:05.375Z,98397.90
2022-09-29T16:05:10.216Z,98398.06
2022-09-29T16:06:12.627Z,98401.95
2022-09-29T16:07:16.707Z,98401.92
2022-09-29T16:08:19.037Z,98401.95
2022-09-29T16:09:23.115Z,98407.48
2022-09-29T16:10:25.384Z,98409.59
2022-09-29T16:11:27.845Z,98406.22
2022-09-29T16:12:30.294Z,98404.58
2022-09-29T16:13:32.701Z,98412.19
2022-09-29T16:14:36.705Z,98414.28
2022-09-29T16:15:40.667Z,98413.48
2022-09-29T16:16:42.943Z,98411.31
2022-09-29T16:17:45.336Z,98414.99
2022-09-29T16:18:49.348Z,98421.31
2022-09-29T16:19:51.729Z,98425.33
2022-09-29T16:20:56.807Z,98424.42
2022-09-29T16:21:56.591Z,98421.77
2022-09-29T16:23:00.666Z,98426.08
2022-09-29T16:24:02.979Z,98426.81
2022-09-29T16:25:07.000Z,98427.47
2022-09-29T16:26:09.268Z,98432.42
2022-09-29T16:27:15.100Z,98430.56
2022-09-29T16:28:15.759Z,98435.78
2022-09-29T16:29:20.679Z,98436.86
2022-09-29T16:30:24.560Z,98443.11
2022-09-29T16:31:26.967Z,98444.71
2022-09-29T16:32:29.268Z,98440.13
2022-09-29T16:33:33.312Z,98447.05
2022-09-29T16:34:37.218Z,98445.35
2022-09-29T16:35:39.508Z,98443.34
2022-09-29T16:36:41.919Z,98443.67
2022-09-29T16:37:44.331Z,98447.14
2022-09-29T16:38:46.849Z,98452.20
2022-09-29T16:39:50.908Z,98451.35
2022-09-29T16:40:54.821Z,98449.02
2022-09-29T16:41:59.835Z,98456.21
2022-09-29T16:43:02.013Z,98455.00
2022-09-29T16:44:04.528Z,98459.36
2022-09-29T16:45:06.978Z,98456.28
2022-09-29T16:46:11.106Z,98456.75
2022-09-29T16:47:15.014Z,98461.30
2022-09-29T16:48:17.356Z,98464.75
2022-09-29T16:49:21.374Z,98462.14
2022-09-29T16:50:25.337Z,98463.12
2022-09-29T16:51:38.431Z,98461.03
2022-09-29T16:52:30.149Z,98462.41
2022-09-29T16:53:32.551Z,98468.64
2022-09-29T16:54:36.947Z,98465.02
2022-09-29T16:55:40.595Z,98465.22
2022-09-29T16:56:42.948Z,98470.86
2022-09-29T16:57:47.013Z,98472.00
2022-09-29T16:58:49.346Z,98473.72
2022-09-29T16:59:53.386Z,98476.59
2022-09-29T17:00:58.646Z,98478.50
2022-09-29T17:02:05.385Z,98476.70
2022-09-29T17:03:03.385Z,98485.53
2022-09-29T17:04:07.336Z,98482.28
2022-09-29T17:05:09.632Z,98483.08
2022-09-29T17:06:12.069Z,98487.83
2022-09-29T17:15:43.846Z,98490.28
2022-09-29T17:25:19.200Z,98493.70
2022-09-29T17:34:52.605Z,98506.44
2022-09-29T17:44:24.445Z,98515.17
2022-09-29T17:54:00.126Z,98519.70
2022-09-29T18:03:34.514Z,98529.28
2022-09-29T18:13:06.438Z,98543.48
2022-09-29T18:22:40.573Z,98542.62
2022-09-29T18:32:14.665Z,98546.39
2022-09-29T18:41:51.131Z,98552.14
2022-09-29T18:51:23.343Z,98557.00
2022-09-29T19:00:56.963Z,98581.21
2022-09-29T19:10:31.192Z,98593.30
2022-09-29T19:20:06.228Z,98601.92
2022-09-29T19:29:39.427Z,98618.75
2022-09-29T19:39:13.592Z,98634.18
2022-09-29T19:48:46.113Z,98645.01
2022-09-29T19:49:48.591Z,98645.95
2022-09-29T19:50:51.042Z,98645.95
2022-09-29T20:00:24.290Z,98654.57
2022-09-29T20:09:59.019Z,98656.80
2022-09-29T20:19:31.780Z,98663.91
2022-09-29T20:29:07.157Z,98676.47
2022-09-29T20:38:40.818Z,98683.27
2022-09-29T20:48:12.840Z,98680.16
2022-09-29T20:57:47.225Z,98686.44
2022-09-29T21:07:20.642Z,98700.33
2022-09-29T21:16:54.559Z,98703.56
2022-09-29T21:26:29.952Z,98712.35
2022-09-29T21:36:01.532Z,98729.98
2022-09-29T21:45:37.060Z,98734.33
2022-09-29T21:55:08.840Z,98745.31
2022-09-29T21:56:12.950Z,98742.74
2022-09-29T22:05:45.463Z,98745.28
2022-09-29T22:15:19.587Z,98748.98
2022-09-29T22:24:52.009Z,98750.72
2022-09-29T22:34:25.591Z,98751.86
2022-09-29T22:43:59.447Z,98755.53
2022-09-29T22:53:33.490Z,98770.27
2022-09-29T23:03:07.568Z,98771.66
2022-09-29T23:12:41.545Z,98779.41
2022-09-29T23:13:45.606Z,98781.14
2022-09-29T23:23:18.611Z,98790.16
2022-09-29T23:32:50.637Z,98792.09
2022-09-29T23:42:26.079Z,98792.20
2022-09-29T23:51:59.622Z,98798.55
